Terminal Aerodrome Forecast
Issued by NWS

Home | Current Version | Previous Version | Text Only | Print | Product List | Glossary On
Versions: 1 2 3 4 5 6 7 8 9 10 11 12 13 14 15 16 17 18 19 20 21 22 23 24 25 26 27 28 29 30 31 32 33 34 35 36 37 38 39 40 41 42 43 44 45 46 47 48 49 50
883
FTUS44 KLIX 041927 AAA
TAFASD
TAF AMD
KASD 041927Z 0419/0518 32008KT P6SM SCT010 OVC035
      TEMPO 0419/0422 3SM SHRA BR OVC003
     FM042200 34006KT P6SM BKN015 OVC025
      TEMPO 0423/0503 2SM SHRA OVC015
     FM050300 01006KT 5SM SHRA BR OVC015
     FM051000 04007KT 5SM SHRA BR OVC010
      TEMPO 0514/0518 2SM TSRA OVC008CB=

USA.gov is the U.S. government's official web portal to all federal, state and local government web resources and services.